sensor_id;sensor_type;location;lat;lon;timestamp;pressure;altitude;pressure_sealevel;temperature;humidity
61394;BME280;48555;50.952;-0.120;2023-04-26T00:01:28;101414.16;;;6.76;66.64
61394;BME280;48555;50.952;-0.120;2023-04-26T00:03:54;101403.84;;;6.75;66.78
61394;BME280;48555;50.952;-0.120;2023-04-26T00:06:20;101394.56;;;6.69;66.81
61394;BME280;48555;50.952;-0.120;2023-04-26T00:08:45;101404.41;;;6.63;67.66
61394;BME280;48555;50.952;-0.120;2023-04-26T00:11:11;101383.75;;;6.59;67.44
61394;BME280;48555;50.952;-0.120;2023-04-26T00:13:36;101396.50;;;6.64;67.72
61394;BME280;48555;50.952;-0.120;2023-04-26T00:16:03;101385.38;;;6.62;68.28
61394;BME280;48555;50.952;-0.120;2023-04-26T00:18:28;101392.38;;;6.60;68.29
61394;BME280;48555;50.952;-0.120;2023-04-26T00:20:55;101395.94;;;6.57;68.48
61394;BME280;48555;50.952;-0.120;2023-04-26T00:23:21;101395.03;;;6.58;68.66
61394;BME280;48555;50.952;-0.120;2023-04-26T00:25:46;101380.34;;;6.57;68.69
61394;BME280;48555;50.952;-0.120;2023-04-26T00:28:11;101374.25;;;6.58;68.45
61394;BME280;48555;50.952;-0.120;2023-04-26T00:30:37;101384.78;;;6.55;69.21
61394;BME280;48555;50.952;-0.120;2023-04-26T00:33:05;101385.56;;;6.57;69.29
61394;BME280;48555;50.952;-0.120;2023-04-26T00:35:30;101370.94;;;6.55;69.66
61394;BME280;48555;50.952;-0.120;2023-04-26T00:37:55;101367.56;;;6.53;69.36
61394;BME280;48555;50.952;-0.120;2023-04-26T00:40:21;101375.56;;;6.48;70.02
61394;BME280;48555;50.952;-0.120;2023-04-26T00:42:46;101373.75;;;6.50;70.14
61394;BME280;48555;50.952;-0.120;2023-04-26T00:45:12;101372.66;;;6.56;70.01
61394;BME280;48555;50.952;-0.120;2023-04-26T00:47:37;101371.63;;;6.58;70.02
61394;BME280;48555;50.952;-0.120;2023-04-26T00:50:03;101369.19;;;6.55;70.12
61394;BME280;48555;50.952;-0.120;2023-04-26T00:52:29;101360.69;;;6.52;70.34
61394;BME280;48555;50.952;-0.120;2023-04-26T00:54:56;101373.47;;;6.56;70.24
61394;BME280;48555;50.952;-0.120;2023-04-26T00:57:21;101378.75;;;6.55;70.60
61394;BME280;48555;50.952;-0.120;2023-04-26T00:59:47;101376.28;;;6.52;70.51
61394;BME280;48555;50.952;-0.120;2023-04-26T01:02:13;101365.25;;;6.47;71.09
61394;BME280;48555;50.952;-0.120;2023-04-26T01:04:38;101377.19;;;6.51;70.38
61394;BME280;48555;50.952;-0.120;2023-04-26T01:07:06;101370.25;;;6.51;70.39
61394;BME280;48555;50.952;-0.120;2023-04-26T01:09:31;101361.53;;;6.52;70.79
61394;BME280;48555;50.952;-0.120;2023-04-26T01:11:57;101359.91;;;6.50;70.59
61394;BME280;48555;50.952;-0.120;2023-04-26T01:14:23;101350.53;;;6.47;70.36
61394;BME280;48555;50.952;-0.120;2023-04-26T01:16:49;101345.31;;;6.47;71.05
61394;BME280;48555;50.952;-0.120;2023-04-26T01:19:15;101343.69;;;6.45;71.02
61394;BME280;48555;50.952;-0.120;2023-04-26T01:21:41;101349.09;;;6.40;71.51
61394;BME280;48555;50.952;-0.120;2023-04-26T01:24:08;101354.28;;;6.40;71.05
61394;BME280;48555;50.952;-0.120;2023-04-26T01:26:34;101359.56;;;6.39;71.46
61394;BME280;48555;50.952;-0.120;2023-04-26T01:28:59;101357.81;;;6.39;71.50
61394;BME280;48555;50.952;-0.120;2023-04-26T01:31:25;101343.06;;;6.40;71.21
61394;BME280;48555;50.952;-0.120;2023-04-26T01:33:51;101350.75;;;6.41;71.49
61394;BME280;48555;50.952;-0.120;2023-04-26T01:36:16;101347.31;;;6.41;71.48
61394;BME280;48555;50.952;-0.120;2023-04-26T01:38:41;101340.38;;;6.41;71.56
61394;BME280;48555;50.952;-0.120;2023-04-26T01:41:07;101322.59;;;6.32;71.54
61394;BME280;48555;50.952;-0.120;2023-04-26T01:43:32;101348.91;;;6.45;71.39
61394;BME280;48555;50.952;-0.120;2023-04-26T01:45:57;101350.56;;;6.46;71.82
61394;BME280;48555;50.952;-0.120;2023-04-26T01:48:23;101350.56;;;6.46;71.38
61394;BME280;48555;50.952;-0.120;2023-04-26T01:50:48;101344.41;;;6.48;71.71
61394;BME280;48555;50.952;-0.120;2023-04-26T01:53:13;101346.16;;;6.48;72.05
61394;BME280;48555;50.952;-0.120;2023-04-26T01:55:39;101347.91;;;6.47;71.60
61394;BME280;48555;50.952;-0.120;2023-04-26T01:58:04;101350.72;;;6.43;72.56
61394;BME280;48555;50.952;-0.120;2023-04-26T02:00:29;101336.88;;;6.42;72.69
61394;BME280;48555;50.952;-0.120;2023-04-26T02:02:55;101329.38;;;6.36;73.30
61394;BME280;48555;50.952;-0.120;2023-04-26T02:05:22;101324.09;;;6.37;73.26
61394;BME280;48555;50.952;-0.120;2023-04-26T02:07:48;101316.09;;;6.42;73.52
61394;BME280;48555;50.952;-0.120;2023-04-26T02:10:13;101316.94;;;6.43;73.34
61394;BME280;48555;50.952;-0.120;2023-04-26T02:12:38;101318.75;;;6.41;73.61
61394;BME280;48555;50.952;-0.120;2023-04-26T02:15:04;101321.22;;;6.44;73.81
61394;BME280;48555;50.952;-0.120;2023-04-26T02:17:30;101327.97;;;6.48;73.59
61394;BME280;48555;50.952;-0.120;2023-04-26T02:19:55;101319.41;;;6.46;73.80
61394;BME280;48555;50.952;-0.120;2023-04-26T02:22:22;101311.59;;;6.46;73.50
61394;BME280;48555;50.952;-0.120;2023-04-26T02:24:49;101322.69;;;6.49;73.64
61394;BME280;48555;50.952;-0.120;2023-04-26T02:27:15;101310.63;;;6.48;73.58
61394;BME280;48555;50.952;-0.120;2023-04-26T02:29:41;101305.28;;;6.51;73.42
61394;BME280;48555;50.952;-0.120;2023-04-26T02:32:06;101310.28;;;6.56;73.37
61394;BME280;48555;50.952;-0.120;2023-04-26T02:34:31;101312.00;;;6.55;73.26
61394;BME280;48555;50.952;-0.120;2023-04-26T02:36:57;101307.09;;;6.49;73.92
61394;BME280;48555;50.952;-0.120;2023-04-26T02:39:22;101313.91;;;6.52;73.76
61394;BME280;48555;50.952;-0.120;2023-04-26T02:41:48;101325.78;;;6.57;73.98
61394;BME280;48555;50.952;-0.120;2023-04-26T02:44:14;101319.25;;;6.49;74.23
61394;BME280;48555;50.952;-0.120;2023-04-26T02:46:39;101310.22;;;6.39;74.75
61394;BME280;48555;50.952;-0.120;2023-04-26T02:49:05;101325.56;;;6.43;74.62
61394;BME280;48555;50.952;-0.120;2023-04-26T02:51:30;101328.94;;;6.45;74.70
61394;BME280;48555;50.952;-0.120;2023-04-26T02:53:57;101330.47;;;6.49;74.68
61394;BME280;48555;50.952;-0.120;2023-04-26T02:56:23;101320.94;;;6.50;74.84
61394;BME280;48555;50.952;-0.120;2023-04-26T02:58:49;101319.13;;;6.52;74.53
61394;BME280;48555;50.952;-0.120;2023-04-26T03:01:14;101323.34;;;6.54;74.71
61394;BME280;48555;50.952;-0.120;2023-04-26T03:03:41;101320.59;;;6.57;74.41
61394;BME280;48555;50.952;-0.120;2023-04-26T03:06:06;101314.47;;;6.58;74.34
61394;BME280;48555;50.952;-0.120;2023-04-26T03:08:32;101322.28;;;6.58;74.69
61394;BME280;48555;50.952;-0.120;2023-04-26T03:10:59;101312.66;;;6.60;74.32
61394;BME280;48555;50.952;-0.120;2023-04-26T03:13:24;101311.69;;;6.63;74.41
61394;BME280;48555;50.952;-0.120;2023-04-26T03:15:50;101322.13;;;6.62;74.56
61394;BME280;48555;50.952;-0.120;2023-04-26T03:18:17;101326.34;;;6.64;74.37
61394;BME280;48555;50.952;-0.120;2023-04-26T03:20:42;101321.00;;;6.67;74.49
61394;BME280;48555;50.952;-0.120;2023-04-26T03:23:07;101315.25;;;6.60;75.03
61394;BME280;48555;50.952;-0.120;2023-04-26T03:25:33;101315.94;;;6.64;74.56
61394;BME280;48555;50.952;-0.120;2023-04-26T03:27:58;101320.13;;;6.68;74.90
61394;BME280;48555;50.952;-0.120;2023-04-26T03:30:24;101320.94;;;6.69;74.62
61394;BME280;48555;50.952;-0.120;2023-04-26T03:32:50;101318.91;;;6.75;74.63
61394;BME280;48555;50.952;-0.120;2023-04-26T03:35:15;101321.31;;;6.80;74.32
61394;BME280;48555;50.952;-0.120;2023-04-26T03:37:40;101317.91;;;6.78;74.33
61394;BME280;48555;50.952;-0.120;2023-04-26T03:40:07;101310.81;;;6.81;74.44
61394;BME280;48555;50.952;-0.120;2023-04-26T03:42:33;101313.56;;;6.78;74.69
61394;BME280;48555;50.952;-0.120;2023-04-26T03:44:58;101297.56;;;6.69;75.42
61394;BME280;48555;50.952;-0.120;2023-04-26T03:47:24;101298.25;;;6.72;75.22
61394;BME280;48555;50.952;-0.120;2023-04-26T03:49:49;101292.72;;;6.61;75.81
61394;BME280;48555;50.952;-0.120;2023-04-26T03:52:14;101293.19;;;6.69;75.80
61394;BME280;48555;50.952;-0.120;2023-04-26T03:54:41;101289.91;;;6.66;75.79
61394;BME280;48555;50.952;-0.120;2023-04-26T03:57:06;101288.28;;;6.63;76.17
61394;BME280;48555;50.952;-0.120;2023-04-26T03:59:31;101283.88;;;6.65;76.23
61394;BME280;48555;50.952;-0.120;2023-04-26T04:01:57;101284.03;;;6.62;76.18
61394;BME280;48555;50.952;-0.120;2023-04-26T04:04:22;101278.03;;;6.60;76.50
61394;BME280;48555;50.952;-0.120;2023-04-26T04:06:47;101273.81;;;6.57;76.86
61394;BME280;48555;50.952;-0.120;2023-04-26T04:09:13;101260.84;;;6.57;76.72
61394;BME280;48555;50.952;-0.120;2023-04-26T04:11:38;101275.72;;;6.54;77.68
61394;BME280;48555;50.952;-0.120;2023-04-26T04:14:03;101273.13;;;6.54;77.52
61394;BME280;48555;50.952;-0.120;2023-04-26T04:16:29;101267.41;;;6.65;77.09
61394;BME280;48555;50.952;-0.120;2023-04-26T04:18:54;101263.97;;;6.64;76.93
61394;BME280;48555;50.952;-0.120;2023-04-26T04:21:19;101262.69;;;6.73;76.94
61394;BME280;48555;50.952;-0.120;2023-04-26T04:23:45;101262.50;;;6.77;76.55
61394;BME280;48555;50.952;-0.120;2023-04-26T04:26:11;101264.66;;;6.87;76.28
61394;BME280;48555;50.952;-0.120;2023-04-26T04:28:38;101257.63;;;6.89;76.36
61394;BME280;48555;50.952;-0.120;2023-04-26T04:31:05;101266.13;;;6.92;76.25
61394;BME280;48555;50.952;-0.120;2023-04-26T04:33:32;101259.31;;;6.90;76.33
61394;BME280;48555;50.952;-0.120;2023-04-26T04:35:57;101260.63;;;6.98;76.11
61394;BME280;48555;50.952;-0.120;2023-04-26T04:38:22;101262.31;;;6.99;75.65
61394;BME280;48555;50.952;-0.120;2023-04-26T04:40:48;101256.94;;;7.02;75.54
61394;BME280;48555;50.952;-0.120;2023-04-26T04:43:16;101265.47;;;7.06;75.59
61394;BME280;48555;50.952;-0.120;2023-04-26T04:45:42;101260.19;;;7.08;75.45
61394;BME280;48555;50.952;-0.120;2023-04-26T04:48:08;101250.00;;;7.03;75.48
61394;BME280;48555;50.952;-0.120;2023-04-26T04:50:35;101250.75;;;7.05;75.69
61394;BME280;48555;50.952;-0.120;2023-04-26T04:53:01;101264.53;;;7.07;75.50
61394;BME280;48555;50.952;-0.120;2023-04-26T04:55:26;101255.91;;;7.07;75.61
61394;BME280;48555;50.952;-0.120;2023-04-26T04:57:52;101263.56;;;7.10;75.54
61394;BME280;48555;50.952;-0.120;2023-04-26T05:00:18;101258.50;;;7.07;75.86
61394;BME280;48555;50.952;-0.120;2023-04-26T05:02:44;101264.75;;;7.02;76.02
61394;BME280;48555;50.952;-0.120;2023-04-26T05:05:10;101263.91;;;7.02;75.95
61394;BME280;48555;50.952;-0.120;2023-04-26T05:07:35;101259.69;;;6.99;75.95
61394;BME280;48555;50.952;-0.120;2023-04-26T05:10:02;101263.22;;;6.98;76.39
61394;BME280;48555;50.952;-0.120;2023-04-26T05:12:27;101262.75;;;6.90;76.41
61394;BME280;48555;50.952;-0.120;2023-04-26T05:14:52;101271.81;;;7.00;76.40
61394;BME280;48555;50.952;-0.120;2023-04-26T05:17:18;101264.84;;;7.01;76.45
61394;BME280;48555;50.952;-0.120;2023-04-26T05:19:43;101261.25;;;7.03;76.35
61394;BME280;48555;50.952;-0.120;2023-04-26T05:22:09;101257.88;;;7.01;76.15
61394;BME280;48555;50.952;-0.120;2023-04-26T05:24:34;101275.63;;;7.11;76.04
61394;BME280;48555;50.952;-0.120;2023-04-26T05:27:00;101264.25;;;7.13;76.05
61394;BME280;48555;50.952;-0.120;2023-04-26T05:29:31;101265.91;;;7.14;76.03
61394;BME280;48555;50.952;-0.120;2023-04-26T05:31:56;101263.25;;;7.16;75.70
61394;BME280;48555;50.952;-0.120;2023-04-26T05:34:22;101275.19;;;7.20;75.91
61394;BME280;48555;50.952;-0.120;2023-04-26T05:36:48;101273.25;;;7.23;75.90
61394;BME280;48555;50.952;-0.120;2023-04-26T05:39:13;101282.00;;;7.22;75.96
61394;BME280;48555;50.952;-0.120;2023-04-26T05:41:39;101273.13;;;7.26;75.67
61394;BME280;48555;50.952;-0.120;2023-04-26T05:44:05;101285.13;;;7.29;75.84
61394;BME280;48555;50.952;-0.120;2023-04-26T05:46:30;101287.81;;;7.27;75.96
61394;BME280;48555;50.952;-0.120;2023-04-26T05:48:55;101282.63;;;7.27;75.81
61394;BME280;48555;50.952;-0.120;2023-04-26T05:51:21;101274.66;;;7.31;75.85
61394;BME280;48555;50.952;-0.120;2023-04-26T05:53:46;101285.59;;;7.37;75.73
61394;BME280;48555;50.952;-0.120;2023-04-26T05:56:11;101283.97;;;7.35;76.12
61394;BME280;48555;50.952;-0.120;2023-04-26T05:58:37;101281.00;;;7.42;75.52
61394;BME280;48555;50.952;-0.120;2023-04-26T06:01:02;101282.16;;;7.37;76.13
61394;BME280;48555;50.952;-0.120;2023-04-26T06:03:28;101286.75;;;7.49;75.75
61394;BME280;48555;50.952;-0.120;2023-04-26T06:05:53;101288.28;;;7.53;75.46
61394;BME280;48555;50.952;-0.120;2023-04-26T06:08:18;101292.19;;;7.62;75.18
61394;BME280;48555;50.952;-0.120;2023-04-26T06:10:43;101291.31;;;7.61;75.22
61394;BME280;48555;50.952;-0.120;2023-04-26T06:13:11;101291.00;;;7.67;74.92
61394;BME280;48555;50.952;-0.120;2023-04-26T06:15:36;101298.66;;;7.70;75.22
61394;BME280;48555;50.952;-0.120;2023-04-26T06:18:01;101291.63;;;7.72;74.99
61394;BME280;48555;50.952;-0.120;2023-04-26T06:20:28;101284.13;;;7.66;75.14
61394;BME280;48555;50.952;-0.120;2023-04-26T06:22:53;101310.00;;;7.87;75.12
61394;BME280;48555;50.952;-0.120;2023-04-26T06:25:19;101306.88;;;7.80;74.99
61394;BME280;48555;50.952;-0.120;2023-04-26T06:27:44;101310.34;;;7.96;74.69
61394;BME280;48555;50.952;-0.120;2023-04-26T06:30:10;101309.34;;;7.99;74.58
61394;BME280;48555;50.952;-0.120;2023-04-26T06:32:37;101306.44;;;8.05;74.55
61394;BME280;48555;50.952;-0.120;2023-04-26T06:35:03;101318.22;;;8.12;74.63
61394;BME280;48555;50.952;-0.120;2023-04-26T06:37:28;101309.81;;;8.07;74.42
61394;BME280;48555;50.952;-0.120;2023-04-26T06:39:53;101308.88;;;8.08;74.32
61394;BME280;48555;50.952;-0.120;2023-04-26T06:42:19;101306.88;;;8.13;74.10
61394;BME280;48555;50.952;-0.120;2023-04-26T06:44:44;101314.53;;;8.16;73.96
61394;BME280;48555;50.952;-0.120;2023-04-26T06:47:10;101299.19;;;8.28;73.54
61394;BME280;48555;50.952;-0.120;2023-04-26T06:49:35;101314.31;;;8.37;73.24
61394;BME280;48555;50.952;-0.120;2023-04-26T06:52:00;101299.50;;;8.39;72.80
61394;BME280;48555;50.952;-0.120;2023-04-26T06:54:27;101302.09;;;8.55;72.59
61394;BME280;48555;50.952;-0.120;2023-04-26T06:56:53;101313.97;;;8.60;71.97
61394;BME280;48555;50.952;-0.120;2023-04-26T06:59:18;101304.38;;;8.61;71.67
61394;BME280;48555;50.952;-0.120;2023-04-26T07:01:43;101298.25;;;8.62;71.63
61394;BME280;48555;50.952;-0.120;2023-04-26T07:04:09;101296.38;;;8.64;71.16
61394;BME280;48555;50.952;-0.120;2023-04-26T07:06:35;101301.97;;;8.74;71.20
61394;BME280;48555;50.952;-0.120;2023-04-26T07:09:01;101289.75;;;8.74;71.29
61394;BME280;48555;50.952;-0.120;2023-04-26T07:11:30;101284.28;;;8.79;71.25
61394;BME280;48555;50.952;-0.120;2023-04-26T07:13:55;101278.88;;;8.82;71.20
61394;BME280;48555;50.952;-0.120;2023-04-26T07:16:21;101281.25;;;8.86;70.90
61394;BME280;48555;50.952;-0.120;2023-04-26T07:18:46;101273.91;;;8.93;70.75
61394;BME280;48555;50.952;-0.120;2023-04-26T07:21:16;101276.53;;;8.93;70.76
61394;BME280;48555;50.952;-0.120;2023-04-26T07:23:42;101280.56;;;8.99;70.62
61394;BME280;48555;50.952;-0.120;2023-04-26T07:26:10;101278.22;;;8.94;69.82
61394;BME280;48555;50.952;-0.120;2023-04-26T07:28:35;101277.19;;;8.97;69.98
61394;BME280;48555;50.952;-0.120;2023-04-26T07:31:00;101270.63;;;8.90;70.04
61394;BME280;48555;50.952;-0.120;2023-04-26T07:33:26;101281.50;;;8.98;69.82
61394;BME280;48555;50.952;-0.120;2023-04-26T07:35:55;101287.50;;;9.14;69.76
61394;BME280;48555;50.952;-0.120;2023-04-26T07:38:21;101280.91;;;9.23;68.88
61394;BME280;48555;50.952;-0.120;2023-04-26T07:40:46;101285.44;;;9.35;68.82
61394;BME280;48555;50.952;-0.120;2023-04-26T07:43:12;101274.25;;;9.33;68.09
61394;BME280;48555;50.952;-0.120;2023-04-26T07:45:39;101286.28;;;9.36;68.19
61394;BME280;48555;50.952;-0.120;2023-04-26T07:48:05;101287.72;;;9.41;67.75
61394;BME280;48555;50.952;-0.120;2023-04-26T07:50:30;101289.28;;;9.44;67.71
61394;BME280;48555;50.952;-0.120;2023-04-26T07:52:56;101294.03;;;9.37;67.37
61394;BME280;48555;50.952;-0.120;2023-04-26T07:55:21;101265.84;;;9.28;67.56
61394;BME280;48555;50.952;-0.120;2023-04-26T07:57:46;101287.44;;;9.46;67.06
61394;BME280;48555;50.952;-0.120;2023-04-26T08:00:12;101262.63;;;9.39;65.82
61394;BME280;48555;50.952;-0.120;2023-04-26T08:02:38;101286.59;;;9.45;65.86
61394;BME280;48555;50.952;-0.120;2023-04-26T08:05:04;101289.09;;;9.47;65.78
61394;BME280;48555;50.952;-0.120;2023-04-26T08:07:29;101275.50;;;9.42;65.38
61394;BME280;48555;50.952;-0.120;2023-04-26T08:09:55;101291.19;;;9.56;65.30
61394;BME280;48555;50.952;-0.120;2023-04-26T08:12:20;101294.34;;;9.61;64.46
61394;BME280;48555;50.952;-0.120;2023-04-26T08:14:45;101299.28;;;9.51;65.00
61394;BME280;48555;50.952;-0.120;2023-04-26T08:17:11;101300.53;;;9.60;64.92
61394;BME280;48555;50.952;-0.120;2023-04-26T08:19:36;101296.78;;;9.64;64.86
61394;BME280;48555;50.952;-0.120;2023-04-26T08:22:02;101284.09;;;9.58;65.04
61394;BME280;48555;50.952;-0.120;2023-04-26T08:24:28;101286.16;;;9.53;65.06
61394;BME280;48555;50.952;-0.120;2023-04-26T08:26:54;101296.88;;;9.63;65.04
61394;BME280;48555;50.952;-0.120;2023-04-26T08:29:21;101288.50;;;9.72;64.51
61394;BME280;48555;50.952;-0.120;2023-04-26T08:31:47;101288.50;;;9.72;64.23
61394;BME280;48555;50.952;-0.120;2023-04-26T08:34:12;101288.53;;;9.86;63.23
61394;BME280;48555;50.952;-0.120;2023-04-26T08:36:40;101293.00;;;9.84;63.16
61394;BME280;48555;50.952;-0.120;2023-04-26T08:39:06;101281.34;;;9.90;62.67
61394;BME280;48555;50.952;-0.120;2023-04-26T08:41:40;101288.06;;;9.94;62.82
61394;BME280;48555;50.952;-0.120;2023-04-26T08:44:07;101287.72;;;10.00;62.42
61394;BME280;48555;50.952;-0.120;2023-04-26T08:46:42;101284.63;;;10.08;61.19
61394;BME280;48555;50.952;-0.120;2023-04-26T08:52:03;101291.16;;;10.15;59.56
61394;BME280;48555;50.952;-0.120;2023-04-26T08:54:33;101291.63;;;10.21;60.30
61394;BME280;48555;50.952;-0.120;2023-04-26T08:57:00;101299.16;;;10.26;60.48
61394;BME280;48555;50.952;-0.120;2023-04-26T08:59:28;101293.31;;;10.37;60.54
61394;BME280;48555;50.952;-0.120;2023-04-26T09:01:55;101303.38;;;10.43;60.76
61394;BME280;48555;50.952;-0.120;2023-04-26T09:04:22;101289.38;;;10.44;60.45
61394;BME280;48555;50.952;-0.120;2023-04-26T09:06:48;101297.88;;;10.48;59.24
61394;BME280;48555;50.952;-0.120;2023-04-26T09:09:17;101293.31;;;10.37;58.84
61394;BME280;48555;50.952;-0.120;2023-04-26T09:14:22;101296.66;;;10.53;58.41
61394;BME280;48555;50.952;-0.120;2023-04-26T09:16:49;101285.00;;;10.44;58.79
61394;BME280;48555;50.952;-0.120;2023-04-26T09:19:16;101286.41;;;10.50;58.21
61394;BME280;48555;50.952;-0.120;2023-04-26T09:21:45;101299.28;;;10.53;57.27
61394;BME280;48555;50.952;-0.120;2023-04-26T09:24:11;101305.34;;;10.54;57.08
61394;BME280;48555;50.952;-0.120;2023-04-26T09:26:37;101297.50;;;10.54;56.34
61394;BME280;48555;50.952;-0.120;2023-04-26T09:29:16;101305.03;;;10.58;56.48
61394;BME280;48555;50.952;-0.120;2023-04-26T09:31:43;101290.38;;;10.56;55.60
61394;BME280;48555;50.952;-0.120;2023-04-26T09:34:11;101299.34;;;10.66;55.19
61394;BME280;48555;50.952;-0.120;2023-04-26T09:36:54;101300.16;;;10.66;55.06
61394;BME280;48555;50.952;-0.120;2023-04-26T09:39:34;101298.13;;;10.57;54.97
61394;BME280;48555;50.952;-0.120;2023-04-26T09:41:59;101307.13;;;10.53;55.44
61394;BME280;48555;50.952;-0.120;2023-04-26T09:44:27;101301.03;;;10.53;55.64
61394;BME280;48555;50.952;-0.120;2023-04-26T09:47:07;101302.03;;;10.64;55.19
61394;BME280;48555;50.952;-0.120;2023-04-26T09:52:10;101302.03;;;10.64;54.16
61394;BME280;48555;50.952;-0.120;2023-04-26T09:57:05;101305.22;;;10.69;54.46
61394;BME280;48555;50.952;-0.120;2023-04-26T09:59:46;101306.41;;;10.78;54.75
61394;BME280;48555;50.952;-0.120;2023-04-26T10:02:23;101309.34;;;11.01;54.66
61394;BME280;48555;50.952;-0.120;2023-04-26T10:04:53;101302.66;;;11.09;53.54
61394;BME280;48555;50.952;-0.120;2023-04-26T10:07:21;101300.13;;;11.08;53.74
61394;BME280;48555;50.952;-0.120;2023-04-26T10:09:47;101297.75;;;11.18;53.91
61394;BME280;48555;50.952;-0.120;2023-04-26T10:12:15;101305.66;;;11.30;52.71
61394;BME280;48555;50.952;-0.120;2023-04-26T10:14:41;101313.72;;;11.27;52.16
61394;BME280;48555;50.952;-0.120;2023-04-26T10:17:07;101302.56;;;11.11;52.11
61394;BME280;48555;50.952;-0.120;2023-04-26T10:19:35;101303.38;;;11.11;52.52
61394;BME280;48555;50.952;-0.120;2023-04-26T10:22:07;101302.28;;;11.28;52.79
61394;BME280;48555;50.952;-0.120;2023-04-26T10:24:36;101297.25;;;11.25;52.41
61394;BME280;48555;50.952;-0.120;2023-04-26T10:27:02;101298.72;;;11.29;52.41
61394;BME280;48555;50.952;-0.120;2023-04-26T10:32:19;101290.38;;;11.37;52.43
61394;BME280;48555;50.952;-0.120;2023-04-26T10:35:08;101298.78;;;11.42;51.89
61394;BME280;48555;50.952;-0.120;2023-04-26T10:37:33;101281.38;;;11.41;51.75
61394;BME280;48555;50.952;-0.120;2023-04-26T10:40:31;101290.19;;;11.53;51.03
61394;BME280;48555;50.952;-0.120;2023-04-26T10:45:34;101268.63;;;11.62;49.54
61394;BME280;48555;50.952;-0.120;2023-04-26T10:48:13;101275.84;;;11.58;50.22
61394;BME280;48555;50.952;-0.120;2023-04-26T10:58:48;101261.19;;;12.33;49.83
61394;BME280;48555;50.952;-0.120;2023-04-26T11:03:40;101261.53;;;12.52;48.50
61394;BME280;48555;50.952;-0.120;2023-04-26T11:06:07;101265.06;;;12.64;47.62
61394;BME280;48555;50.952;-0.120;2023-04-26T11:08:34;101264.97;;;12.53;46.85
61394;BME280;48555;50.952;-0.120;2023-04-26T11:13:26;101271.84;;;12.42;47.55
61394;BME280;48555;50.952;-0.120;2023-04-26T11:15:59;101269.00;;;12.45;47.38
61394;BME280;48555;50.952;-0.120;2023-04-26T11:18:28;101265.16;;;12.38;47.84
61394;BME280;48555;50.952;-0.120;2023-04-26T11:20:54;101246.72;;;12.27;48.10
61394;BME280;48555;50.952;-0.120;2023-04-26T11:23:19;101255.44;;;12.52;47.59
61394;BME280;48555;50.952;-0.120;2023-04-26T11:25:46;101263.13;;;12.42;47.96
61394;BME280;48555;50.952;-0.120;2023-04-26T11:28:12;101250.72;;;12.57;47.95
61394;BME280;48555;50.952;-0.120;2023-04-26T11:30:38;101248.25;;;12.66;47.87
61394;BME280;48555;50.952;-0.120;2023-04-26T11:33:03;101260.91;;;12.96;47.61
61394;BME280;48555;50.952;-0.120;2023-04-26T11:35:32;101252.41;;;13.17;47.29
61394;BME280;48555;50.952;-0.120;2023-04-26T11:37:59;101256.53;;;13.32;46.62
61394;BME280;48555;50.952;-0.120;2023-04-26T11:40:29;101241.88;;;13.41;45.43
61394;BME280;48555;50.952;-0.120;2023-04-26T11:42:58;101248.00;;;13.42;46.08
61394;BME280;48555;50.952;-0.120;2023-04-26T11:45:24;101236.78;;;13.51;45.97
61394;BME280;48555;50.952;-0.120;2023-04-26T11:47:50;101237.75;;;13.61;46.34
61394;BME280;48555;50.952;-0.120;2023-04-26T11:50:16;101235.47;;;13.68;45.77
61394;BME280;48555;50.952;-0.120;2023-04-26T11:52:41;101234.63;;;13.56;46.80
61394;BME280;48555;50.952;-0.120;2023-04-26T11:55:08;101235.50;;;13.90;45.96
61394;BME280;48555;50.952;-0.120;2023-04-26T11:57:34;101228.78;;;14.20;45.95
61394;BME280;48555;50.952;-0.120;2023-04-26T12:00:07;101224.66;;;14.49;46.14
61394;BME280;48555;50.952;-0.120;2023-04-26T12:02:35;101236.56;;;14.76;45.35
61394;BME280;48555;50.952;-0.120;2023-04-26T12:05:00;101229.63;;;14.86;44.57
61394;BME280;48555;50.952;-0.120;2023-04-26T12:07:33;101231.50;;;14.95;43.97
61394;BME280;48555;50.952;-0.120;2023-04-26T12:10:13;101227.88;;;14.96;43.21
61394;BME280;48555;50.952;-0.120;2023-04-26T12:12:43;101234.69;;;14.99;42.98
61394;BME280;48555;50.952;-0.120;2023-04-26T12:15:10;101226.44;;;14.71;43.42
61394;BME280;48555;50.952;-0.120;2023-04-26T12:17:36;101232.78;;;14.69;43.78
61394;BME280;48555;50.952;-0.120;2023-04-26T12:20:08;101236.28;;;14.58;43.85
61394;BME280;48555;50.952;-0.120;2023-04-26T12:22:34;101227.69;;;14.56;44.48
61394;BME280;48555;50.952;-0.120;2023-04-26T12:25:03;101231.13;;;14.45;44.53
61394;BME280;48555;50.952;-0.120;2023-04-26T12:27:30;101224.22;;;14.33;44.08
61394;BME280;48555;50.952;-0.120;2023-04-26T12:29:55;101234.28;;;14.28;44.63
61394;BME280;48555;50.952;-0.120;2023-04-26T12:32:21;101231.41;;;14.31;44.58
61394;BME280;48555;50.952;-0.120;2023-04-26T12:34:46;101231.91;;;14.25;44.41
61394;BME280;48555;50.952;-0.120;2023-04-26T12:37:12;101223.91;;;14.15;45.18
61394;BME280;48555;50.952;-0.120;2023-04-26T12:39:37;101234.88;;;14.20;45.25
61394;BME280;48555;50.952;-0.120;2023-04-26T12:42:03;101219.34;;;14.17;44.85
61394;BME280;48555;50.952;-0.120;2023-04-26T12:44:28;101227.84;;;14.21;45.64
61394;BME280;48555;50.952;-0.120;2023-04-26T12:46:53;101220.91;;;14.20;45.03
61394;BME280;48555;50.952;-0.120;2023-04-26T12:49:19;101221.72;;;14.20;44.94
61394;BME280;48555;50.952;-0.120;2023-04-26T12:51:44;101227.72;;;14.22;44.59
61394;BME280;48555;50.952;-0.120;2023-04-26T12:54:10;101227.81;;;14.32;44.96
61394;BME280;48555;50.952;-0.120;2023-04-26T12:56:35;101229.38;;;14.23;44.37
61394;BME280;48555;50.952;-0.120;2023-04-26T12:59:04;101220.19;;;14.18;45.15
61394;BME280;48555;50.952;-0.120;2023-04-26T13:01:30;101220.22;;;14.06;45.51
61394;BME280;48555;50.952;-0.120;2023-04-26T13:03:56;101222.34;;;14.13;45.24
61394;BME280;48555;50.952;-0.120;2023-04-26T13:06:23;101224.63;;;14.06;45.02
61394;BME280;48555;50.952;-0.120;2023-04-26T13:08:49;101221.28;;;14.15;44.83
61394;BME280;48555;50.952;-0.120;2023-04-26T13:11:14;101213.59;;;14.23;44.97
61394;BME280;48555;50.952;-0.120;2023-04-26T13:13:40;101234.88;;;14.31;44.95